Skip to main content

NOAA/GLERL Met Station at Chicago, IL

Previous 5 days (top of hour only)
See also Previous 3 Hours (2 minute increments)
Jump down to Data
Switch to [English][Metric]
Zoom: Click and drag, Pan: shift-click and drag, Unzoom: double-click, Unzoom All




Note: Speed = mean wind during 2-minute period at top of hour,
Gust = max wind during 2-minute period at top of hour,
Peak = max wind during entire hour.
• See also 5-day windrose plot


NOAA/GLERL Met Station at Chicago, IL

Previous 5 days (top of hour only)
See also Previous 3 Hours (2 minute increments)
Jump up to Graphs
Switch to [English][Metric]
                  Wind  Wind  Wind   Air   Dew   Rel
                   Spd   Gst   Dir  Temp    Pt   Hum
YYYY-MM-DD   CDT   kts   kts   deg     F     F     %
2022-05-19 23:00  29.2  33.4   188  71.4  60.2  67.3
2022-05-19 22:00  21.6  22.6   177  71.8  59.9  65.7
2022-05-19 21:00  25.9  26.8   172  72.9  61.5  67.2
2022-05-19 20:00  20.6  23.7   165  72.0  57.7  60.4
2022-05-19 19:00  14.0  17.9   149  76.8  54.1  44.7
2022-05-19 18:00  17.9  19.2   171  80.8  52.1  36.4
2022-05-19 17:00  17.3  19.1   185  76.6  54.0  44.9
2022-05-19 16:00  18.9  20.6   197  81.0  54.1  39.0
2022-05-19 15:00  11.1  13.8   202  79.0  58.5  48.9
2022-05-19 14:00  15.4  16.7   179  78.1  61.2  55.5
2022-05-19 13:00  10.7  12.8   201  71.1  61.8  72.2
2022-05-19 12:00   8.6   9.9   151  68.0  63.0  83.7
2022-05-19 11:00   8.0   8.9   161  67.8  62.6  83.0
2022-05-19 10:00  14.6  15.7   265  65.7  62.1  88.0
2022-05-19 09:00  12.4  13.6   214  61.7  60.9  97.2
2022-05-19 08:00  11.5  12.2   165  57.0  57.1 100.2
2022-05-19 07:00  13.4  14.4   172  54.9  54.9 100.2
2022-05-19 06:00  10.1  10.7   167  53.4  53.5 100.2
2022-05-19 05:00  10.3  11.1   128  51.8  51.9 100.2
2022-05-19 04:00   7.8   8.2    87  51.4  51.5 100.2
2022-05-19 03:00   5.4   5.6   179  56.1  56.2 100.2
2022-05-19 02:00   4.1   4.5   143  54.5  54.6 100.2
2022-05-19 01:00   5.1   5.4   177  55.0  55.1 100.2
2022-05-19 00:00   3.7   3.9   219  56.7  55.1  94.4
2022-05-18 23:00   6.2   7.0   349  54.5  52.9  94.1
2022-05-18 22:00   6.6   7.4   358  55.0  53.9  95.8
2022-05-18 21:00   7.8   8.6   325  54.1  52.9  95.5
2022-05-18 20:00   7.6   8.0   348  54.0  53.2  97.1
2022-05-18 19:00   9.5  10.5   350  51.6  51.7 100.2
2022-05-18 18:00  12.4  13.2   349  50.5  50.6 100.2
2022-05-18 17:00  10.1  10.5   349  50.7  50.8 100.2
2022-05-18 16:00   6.8   7.0   344  51.6  51.7 100.2
2022-05-18 15:00   2.1   2.5   331  52.9  52.9 100.2
2022-05-18 14:00   7.4   8.2    65  52.0  52.0 100.2
2022-05-18 13:00  12.4  13.2    66  50.7  50.8 100.2
2022-05-18 12:00  11.1  12.6    61  51.1  51.1 100.2
2022-05-18 11:00  17.1  17.9    77  50.5  50.6 100.2
2022-05-18 10:00  10.5  11.1    50  52.3  50.4  93.1
2022-05-18 09:00  10.5  12.2    80  52.9  49.4  87.7
2022-05-18 08:00  15.7  17.7    77  53.8  49.1  84.0
2022-05-18 07:00  18.5  20.4    85  52.5  49.6  89.5
2022-05-18 06:00  13.8  14.4    76  52.5  49.3  88.5
2022-05-18 05:00   9.9  11.5    89  53.6  48.0  81.0
2022-05-18 04:00   8.6   9.3    95  53.4  49.0  84.8
2022-05-18 03:00   9.5  10.3    89  52.2  50.1  92.6
2022-05-18 02:00   6.2   6.8   104  53.4  47.8  80.9
2022-05-18 01:00   7.4   8.2    97  53.2  47.1  79.3
2022-05-18 00:00   6.4   7.2   132  52.9  46.6  79.0
2022-05-17 23:00  12.1  14.2    72  52.9  43.9  71.3
2022-05-17 22:00  13.2  14.4    45  52.3  45.1  76.1
2022-05-17 21:00   7.4   7.8    80  52.5  43.2  70.3
2022-05-17 20:00   6.4   7.4   122  51.6  43.6  73.7
2022-05-17 19:00   5.1   5.4    94  51.6  44.4  76.2
2022-05-17 18:00   7.4   8.4   126  50.9  44.9  79.8
2022-05-17 17:00  11.5  12.1    85  51.4  42.2  70.5
2022-05-17 16:00   8.9  11.1    57  50.9  44.6  78.7
2022-05-17 15:00   9.3  10.1    21  51.3  46.3  82.8
2022-05-17 14:00   3.7   4.1    47  51.4  46.6  83.4
2022-05-17 13:00   5.6   6.0    42  51.4  45.9  81.1
2022-05-17 12:00   4.9   5.2    37  51.8  44.9  77.0
2022-05-17 11:00   3.7   4.3     7  51.8  44.0  74.5
2022-05-17 10:00   2.9   3.1    10  51.8  43.2  72.2
2022-05-17 09:00   4.5   4.9    27  51.3  43.3  73.8
2022-05-17 08:00   2.9   3.5    22  51.6  43.4  73.2
2022-05-17 07:00   5.8   6.4    42  51.3  43.0  73.2
2022-05-17 06:00   7.6   8.6    47  51.4  43.6  74.2
2022-05-17 05:00   8.2  10.3    26  51.4  45.1  78.8
2022-05-17 04:00  10.9  11.9   357  52.0  46.9  82.7
2022-05-17 03:00  14.2  15.2   351  52.9  45.9  77.0
2022-05-17 02:00  15.6  16.9   353  54.5  45.8  72.1
2022-05-17 01:00  11.3  11.7   340  58.5  47.5  66.7
2022-05-17 00:00  11.3  11.7   343  59.4  47.4  64.2
2022-05-16 23:00  15.7  18.1   355  68.2  43.2  39.9
2022-05-16 22:00  10.5  10.9   295  72.7  38.7  28.7
2022-05-16 21:00   9.1   9.7   295  73.8  38.3  27.2
2022-05-16 20:00  12.8  13.6   301  73.9  38.7  27.5
2022-05-16 19:00  18.3  20.6   294  75.0  37.1  24.9
2022-05-16 18:00  14.6  15.9   286  73.0  37.9  27.4
2022-05-16 17:00  15.9  18.1   302  73.6  38.3  27.4
2022-05-16 16:00  15.9  19.8   289  71.8  38.1  28.9
2022-05-16 15:00  15.7  17.1   296  70.7  37.2  28.9
2022-05-16 14:00  16.9  21.2   301  71.2  36.5  27.6
2022-05-16 13:00   8.9  11.9   328  67.1  42.1  39.7
2022-05-16 12:00  11.9  15.4   314  64.9  42.1  42.9
2022-05-16 11:00  11.1  12.6   307  68.4  41.7  37.5
2022-05-16 10:00  13.4  14.2   309  67.6  40.9  37.3
2022-05-16 09:00  10.3  10.9   288  64.6  46.8  52.0
2022-05-16 08:00  13.2  14.2   279  61.3  49.5  64.6
2022-05-16 07:00  15.7  16.9   276  57.9  51.1  77.8
2022-05-16 06:00  17.7  18.7   270  57.2  51.7  81.6
2022-05-16 05:00  18.3  20.2   275  57.6  51.5  79.9
2022-05-16 04:00  20.8  22.6   266  58.1  51.2  77.6
2022-05-16 03:00  17.3  18.7   265  57.7  51.8  80.2
2022-05-16 02:00  17.1  18.3   267  59.2  52.4  78.1
2022-05-16 01:00  10.1  12.1   231  59.7  54.1  81.3
2022-05-16 00:00  13.4  14.4   197  61.0  53.5  76.0
2022-05-15 23:00  11.1  11.9   201  60.4  55.2  82.5
2022-05-15 22:00  11.5  12.6   174  58.6  57.7  96.8
2022-05-15 21:00  11.3  15.4   154  58.3  57.6  97.5
2022-05-15 20:00   4.5   5.6   153  57.9  55.2  90.5
2022-05-15 19:00   3.5   3.7    43  58.8  55.1  87.4